sensor_id;sensor_type;location;lat;lon;timestamp;P1;durP1;ratioP1;P2;durP2;ratioP2
24439;SDS011;12618;54.386;18.394;2024-01-11T16:27:45;11.40;;;5.00;;
24439;SDS011;12618;54.386;18.394;2024-01-11T16:30:16;17.90;;;10.00;;
24439;SDS011;12618;54.386;18.394;2024-01-11T16:32:48;155.50;;;60.70;;
24439;SDS011;12618;54.386;18.394;2024-01-11T16:35:20;6.60;;;3.80;;
24439;SDS011;12618;54.386;18.394;2024-01-11T16:37:55;24.20;;;16.20;;
24439;SDS011;12618;54.386;18.394;2024-01-11T16:40:27;9.60;;;5.10;;
24439;SDS011;12618;54.386;18.394;2024-01-11T16:42:59;9.50;;;4.90;;
24439;SDS011;12618;54.386;18.394;2024-01-11T16:45:31;16.40;;;11.70;;
24439;SDS011;12618;54.386;18.394;2024-01-11T16:48:07;12.40;;;6.60;;
24439;SDS011;12618;54.386;18.394;2024-01-11T16:50:41;11.40;;;5.40;;
24439;SDS011;12618;54.386;18.394;2024-01-11T16:53:13;26.10;;;18.10;;
24439;SDS011;12618;54.386;18.394;2024-01-11T16:55:46;12.10;;;4.10;;
24439;SDS011;12618;54.386;18.394;2024-01-11T16:58:18;11.30;;;6.70;;
24439;SDS011;12618;54.386;18.394;2024-01-11T17:00:49;23.20;;;15.50;;
24439;SDS011;12618;54.386;18.394;2024-01-11T17:03:21;16.50;;;7.70;;
24439;SDS011;12618;54.386;18.394;2024-01-11T17:05:53;16.60;;;9.90;;
24439;SDS011;12618;54.386;18.394;2024-01-11T17:08:25;31.00;;;17.80;;
24439;SDS011;12618;54.386;18.394;2024-01-11T17:10:58;23.40;;;15.60;;
24439;SDS011;12618;54.386;18.394;2024-01-11T17:13:30;21.80;;;13.30;;
24439;SDS011;12618;54.386;18.394;2024-01-11T17:16:02;14.60;;;6.80;;
24439;SDS011;12618;54.386;18.394;2024-01-11T17:18:38;13.30;;;6.60;;
24439;SDS011;12618;54.386;18.394;2024-01-11T17:21:09;26.70;;;15.20;;
24439;SDS011;12618;54.386;18.394;2024-01-11T17:23:41;22.40;;;12.30;;
24439;SDS011;12618;54.386;18.394;2024-01-11T17:26:15;28.30;;;18.70;;
24439;SDS011;12618;54.386;18.394;2024-01-11T17:28:47;36.60;;;19.70;;
24439;SDS011;12618;54.386;18.394;2024-01-11T17:31:18;19.70;;;11.90;;
24439;SDS011;12618;54.386;18.394;2024-01-11T17:33:50;15.70;;;10.20;;
24439;SDS011;12618;54.386;18.394;2024-01-11T17:36:22;15.30;;;9.70;;
24439;SDS011;12618;54.386;18.394;2024-01-11T17:38:54;22.50;;;12.00;;
24439;SDS011;12618;54.386;18.394;2024-01-11T17:41:26;21.30;;;13.60;;
24439;SDS011;12618;54.386;18.394;2024-01-11T17:43:58;28.90;;;18.30;;
24439;SDS011;12618;54.386;18.394;2024-01-11T17:46:30;23.70;;;13.90;;
24439;SDS011;12618;54.386;18.394;2024-01-11T17:49:04;26.10;;;17.10;;
24439;SDS011;12618;54.386;18.394;2024-01-11T17:51:37;64.40;;;32.50;;
24439;SDS011;12618;54.386;18.394;2024-01-11T17:54:08;32.30;;;16.20;;
24439;SDS011;12618;54.386;18.394;2024-01-11T17:56:43;28.00;;;13.60;;
24439;SDS011;12618;54.386;18.394;2024-01-11T17:59:15;29.70;;;18.50;;
24439;SDS011;12618;54.386;18.394;2024-01-11T18:01:46;22.40;;;12.30;;
24439;SDS011;12618;54.386;18.394;2024-01-11T18:04:18;23.10;;;14.00;;
24439;SDS011;12618;54.386;18.394;2024-01-11T18:06:50;24.60;;;11.20;;
24439;SDS011;12618;54.386;18.394;2024-01-11T18:09:22;50.60;;;33.50;;
24439;SDS011;12618;54.386;18.394;2024-01-11T18:11:54;32.60;;;18.20;;
24439;SDS011;12618;54.386;18.394;2024-01-11T18:14:26;23.70;;;8.70;;
24439;SDS011;12618;54.386;18.394;2024-01-11T18:16:58;24.90;;;14.40;;
24439;SDS011;12618;54.386;18.394;2024-01-11T18:19:30;30.90;;;12.30;;
24439;SDS011;12618;54.386;18.394;2024-01-11T18:22:01;20.90;;;8.90;;
24439;SDS011;12618;54.386;18.394;2024-01-11T18:24:33;27.80;;;12.00;;
24439;SDS011;12618;54.386;18.394;2024-01-11T18:27:05;22.30;;;14.50;;
24439;SDS011;12618;54.386;18.394;2024-01-11T18:29:39;36.70;;;21.80;;
24439;SDS011;12618;54.386;18.394;2024-01-11T18:32:11;19.00;;;12.20;;
24439;SDS011;12618;54.386;18.394;2024-01-11T18:34:43;27.80;;;11.30;;
24439;SDS011;12618;54.386;18.394;2024-01-11T18:37:15;23.50;;;10.70;;
24439;SDS011;12618;54.386;18.394;2024-01-11T18:39:47;36.60;;;19.70;;
24439;SDS011;12618;54.386;18.394;2024-01-11T18:42:19;56.60;;;31.80;;
24439;SDS011;12618;54.386;18.394;2024-01-11T18:44:51;34.90;;;17.90;;
24439;SDS011;12618;54.386;18.394;2024-01-11T18:47:25;48.50;;;31.50;;
24439;SDS011;12618;54.386;18.394;2024-01-11T18:49:56;24.30;;;11.90;;
24439;SDS011;12618;54.386;18.394;2024-01-11T18:52:28;23.80;;;14.50;;
24439;SDS011;12618;54.386;18.394;2024-01-11T18:55:02;14.90;;;7.40;;
24439;SDS011;12618;54.386;18.394;2024-01-11T18:57:47;24.00;;;14.60;;
24439;SDS011;12618;54.386;18.394;2024-01-11T19:00:18;35.90;;;24.80;;
24439;SDS011;12618;54.386;18.394;2024-01-11T19:02:50;17.40;;;10.30;;
24439;SDS011;12618;54.386;18.394;2024-01-11T19:05:23;13.40;;;7.90;;
24439;SDS011;12618;54.386;18.394;2024-01-11T19:07:56;10.70;;;4.90;;
24439;SDS011;12618;54.386;18.394;2024-01-11T19:10:28;12.60;;;6.80;;
24439;SDS011;12618;54.386;18.394;2024-01-11T19:13:00;13.90;;;6.40;;
24439;SDS011;12618;54.386;18.394;2024-01-11T19:15:32;11.00;;;5.10;;
24439;SDS011;12618;54.386;18.394;2024-01-11T19:18:04;11.20;;;7.30;;
24439;SDS011;12618;54.386;18.394;2024-01-11T19:20:40;10.80;;;6.40;;
24439;SDS011;12618;54.386;18.394;2024-01-11T19:23:12;7.50;;;3.50;;
24439;SDS011;12618;54.386;18.394;2024-01-11T19:25:44;6.60;;;3.50;;
24439;SDS011;12618;54.386;18.394;2024-01-11T19:28:15;8.80;;;4.50;;
24439;SDS011;12618;54.386;18.394;2024-01-11T19:30:47;8.90;;;4.80;;
24439;SDS011;12618;54.386;18.394;2024-01-11T19:33:25;7.50;;;3.50;;
24439;SDS011;12618;54.386;18.394;2024-01-11T19:35:59;11.20;;;4.50;;
24439;SDS011;12618;54.386;18.394;2024-01-11T19:38:31;8.30;;;3.50;;
24439;SDS011;12618;54.386;18.394;2024-01-11T19:41:09;8.20;;;3.00;;
24439;SDS011;12618;54.386;18.394;2024-01-11T19:43:41;9.90;;;4.60;;
24439;SDS011;12618;54.386;18.394;2024-01-11T19:46:18;9.40;;;3.60;;
24439;SDS011;12618;54.386;18.394;2024-01-11T19:48:52;7.70;;;2.60;;
24439;SDS011;12618;54.386;18.394;2024-01-11T19:51:24;66.70;;;32.00;;
24439;SDS011;12618;54.386;18.394;2024-01-11T19:53:57;26.10;;;12.50;;
24439;SDS011;12618;54.386;18.394;2024-01-11T19:56:31;10.00;;;5.30;;
24439;SDS011;12618;54.386;18.394;2024-01-11T19:59:05;50.60;;;28.10;;
24439;SDS011;12618;54.386;18.394;2024-01-11T20:01:38;49.30;;;24.80;;
24439;SDS011;12618;54.386;18.394;2024-01-11T20:04:11;39.60;;;22.90;;
24439;SDS011;12618;54.386;18.394;2024-01-11T20:06:43;26.80;;;13.70;;
24439;SDS011;12618;54.386;18.394;2024-01-11T20:09:17;16.60;;;10.00;;
24439;SDS011;12618;54.386;18.394;2024-01-11T20:11:49;19.40;;;11.40;;
24439;SDS011;12618;54.386;18.394;2024-01-11T20:16:56;35.00;;;19.80;;
24439;SDS011;12618;54.386;18.394;2024-01-11T20:19:31;9.90;;;5.40;;
24439;SDS011;12618;54.386;18.394;2024-01-11T20:22:03;21.70;;;11.90;;
24439;SDS011;12618;54.386;18.394;2024-01-11T20:24:35;31.70;;;16.80;;
24439;SDS011;12618;54.386;18.394;2024-01-11T20:27:07;14.00;;;8.20;;
24439;SDS011;12618;54.386;18.394;2024-01-11T20:29:39;21.80;;;12.10;;
24439;SDS011;12618;54.386;18.394;2024-01-11T20:32:12;24.40;;;13.60;;
24439;SDS011;12618;54.386;18.394;2024-01-11T20:34:44;13.80;;;6.10;;
24439;SDS011;12618;54.386;18.394;2024-01-11T20:37:17;19.20;;;9.90;;
24439;SDS011;12618;54.386;18.394;2024-01-11T20:39:50;13.60;;;7.50;;
24439;SDS011;12618;54.386;18.394;2024-01-11T20:42:22;23.50;;;12.90;;
24439;SDS011;12618;54.386;18.394;2024-01-11T20:44:54;11.70;;;6.20;;
24439;SDS011;12618;54.386;18.394;2024-01-11T20:47:26;10.10;;;6.00;;
24439;SDS011;12618;54.386;18.394;2024-01-11T20:49:58;24.00;;;13.60;;
24439;SDS011;12618;54.386;18.394;2024-01-11T20:52:34;29.20;;;19.20;;
24439;SDS011;12618;54.386;18.394;2024-01-11T20:55:07;30.90;;;17.60;;
24439;SDS011;12618;54.386;18.394;2024-01-11T20:57:41;36.90;;;18.00;;
24439;SDS011;12618;54.386;18.394;2024-01-11T21:00:12;19.40;;;10.10;;
24439;SDS011;12618;54.386;18.394;2024-01-11T21:02:45;11.10;;;5.10;;
24439;SDS011;12618;54.386;18.394;2024-01-11T21:05:17;4.60;;;2.90;;
24439;SDS011;12618;54.386;18.394;2024-01-11T21:07:57;17.10;;;9.50;;
24439;SDS011;12618;54.386;18.394;2024-01-11T21:10:31;9.20;;;6.20;;
24439;SDS011;12618;54.386;18.394;2024-01-11T21:13:03;20.30;;;11.90;;
24439;SDS011;12618;54.386;18.394;2024-01-11T21:15:35;11.20;;;5.90;;
24439;SDS011;12618;54.386;18.394;2024-01-11T21:18:07;12.60;;;5.90;;
24439;SDS011;12618;54.386;18.394;2024-01-11T21:20:41;10.80;;;3.80;;
24439;SDS011;12618;54.386;18.394;2024-01-11T21:23:14;6.00;;;2.70;;
24439;SDS011;12618;54.386;18.394;2024-01-11T21:25:46;10.00;;;4.30;;
24439;SDS011;12618;54.386;18.394;2024-01-11T21:28:19;8.30;;;3.00;;
24439;SDS011;12618;54.386;18.394;2024-01-11T21:30:51;12.70;;;4.90;;
24439;SDS011;12618;54.386;18.394;2024-01-11T21:33:22;13.90;;;4.40;;
24439;SDS011;12618;54.386;18.394;2024-01-11T21:35:55;18.80;;;7.70;;
24439;SDS011;12618;54.386;18.394;2024-01-11T21:38:26;12.10;;;4.00;;
24439;SDS011;12618;54.386;18.394;2024-01-11T21:40:58;11.70;;;5.30;;
24439;SDS011;12618;54.386;18.394;2024-01-11T21:43:30;10.50;;;4.70;;
24439;SDS011;12618;54.386;18.394;2024-01-11T21:46:03;30.50;;;14.20;;
24439;SDS011;12618;54.386;18.394;2024-01-11T21:48:39;17.80;;;8.70;;
24439;SDS011;12618;54.386;18.394;2024-01-11T21:51:11;65.00;;;29.80;;
24439;SDS011;12618;54.386;18.394;2024-01-11T21:53:44;22.70;;;12.30;;
24439;SDS011;12618;54.386;18.394;2024-01-11T21:56:16;15.60;;;7.40;;
24439;SDS011;12618;54.386;18.394;2024-01-11T21:58:48;63.50;;;27.90;;
24439;SDS011;12618;54.386;18.394;2024-01-11T22:01:20;25.80;;;11.50;;
24439;SDS011;12618;54.386;18.394;2024-01-11T22:03:52;8.40;;;4.70;;
24439;SDS011;12618;54.386;18.394;2024-01-11T22:06:24;13.40;;;6.00;;
24439;SDS011;12618;54.386;18.394;2024-01-11T22:08:56;12.80;;;4.50;;
24439;SDS011;12618;54.386;18.394;2024-01-11T22:14:02;64.40;;;26.80;;
24439;SDS011;12618;54.386;18.394;2024-01-11T22:16:34;65.50;;;28.80;;
24439;SDS011;12618;54.386;18.394;2024-01-11T22:19:06;70.30;;;31.20;;
24439;SDS011;12618;54.386;18.394;2024-01-11T22:21:38;81.20;;;34.50;;
24439;SDS011;12618;54.386;18.394;2024-01-11T22:24:11;26.70;;;11.80;;
24439;SDS011;12618;54.386;18.394;2024-01-11T22:26:43;28.10;;;13.10;;
24439;SDS011;12618;54.386;18.394;2024-01-11T22:29:14;49.30;;;20.60;;
24439;SDS011;12618;54.386;18.394;2024-01-11T22:31:46;77.50;;;33.30;;
24439;SDS011;12618;54.386;18.394;2024-01-11T22:34:18;42.40;;;20.60;;
24439;SDS011;12618;54.386;18.394;2024-01-11T22:36:50;87.60;;;35.00;;
24439;SDS011;12618;54.386;18.394;2024-01-11T22:39:23;79.60;;;33.30;;
24439;SDS011;12618;54.386;18.394;2024-01-11T22:41:55;146.50;;;56.70;;
24439;SDS011;12618;54.386;18.394;2024-01-11T22:44:27;68.80;;;29.40;;
24439;SDS011;12618;54.386;18.394;2024-01-11T22:47:03;109.60;;;44.10;;
24439;SDS011;12618;54.386;18.394;2024-01-11T22:49:35;64.90;;;27.00;;
24439;SDS011;12618;54.386;18.394;2024-01-11T22:52:07;52.20;;;23.40;;
24439;SDS011;12618;54.386;18.394;2024-01-11T22:54:39;121.90;;;48.30;;
24439;SDS011;12618;54.386;18.394;2024-01-11T22:57:13;66.70;;;27.80;;
24439;SDS011;12618;54.386;18.394;2024-01-11T22:59:45;95.80;;;41.30;;
24439;SDS011;12618;54.386;18.394;2024-01-11T23:02:17;125.20;;;51.90;;
24439;SDS011;12618;54.386;18.394;2024-01-11T23:04:48;134.40;;;52.60;;
24439;SDS011;12618;54.386;18.394;2024-01-11T23:07:22;157.40;;;61.20;;
24439;SDS011;12618;54.386;18.394;2024-01-11T23:09:54;56.30;;;24.30;;
24439;SDS011;12618;54.386;18.394;2024-01-11T23:12:26;105.10;;;45.80;;
24439;SDS011;12618;54.386;18.394;2024-01-11T23:14:58;92.30;;;38.20;;
24439;SDS011;12618;54.386;18.394;2024-01-11T23:17:29;88.70;;;39.80;;
24439;SDS011;12618;54.386;18.394;2024-01-11T23:20:01;72.60;;;33.80;;
24439;SDS011;12618;54.386;18.394;2024-01-11T23:25:39;91.40;;;39.80;;
24439;SDS011;12618;54.386;18.394;2024-01-11T23:28:11;98.60;;;37.00;;
24439;SDS011;12618;54.386;18.394;2024-01-11T23:30:43;90.00;;;33.90;;
24439;SDS011;12618;54.386;18.394;2024-01-11T23:33:15;107.90;;;42.00;;
24439;SDS011;12618;54.386;18.394;2024-01-11T23:35:47;136.90;;;54.20;;
24439;SDS011;12618;54.386;18.394;2024-01-11T23:38:19;96.10;;;37.70;;
24439;SDS011;12618;54.386;18.394;2024-01-11T23:40:51;54.50;;;22.00;;
24439;SDS011;12618;54.386;18.394;2024-01-11T23:43:23;69.00;;;30.50;;
24439;SDS011;12618;54.386;18.394;2024-01-11T23:45:54;97.00;;;39.30;;
24439;SDS011;12618;54.386;18.394;2024-01-11T23:48:26;96.90;;;39.60;;
24439;SDS011;12618;54.386;18.394;2024-01-11T23:50:59;59.20;;;25.10;;
24439;SDS011;12618;54.386;18.394;2024-01-11T23:53:31;111.40;;;46.70;;
24439;SDS011;12618;54.386;18.394;2024-01-11T23:56:03;122.60;;;55.30;;
24439;SDS011;12618;54.386;18.394;2024-01-11T23:58:35;109.70;;;47.80;;
